METAR Data
IDs: Format: Raw Decoded Include TAF

Data at: 0056 UTC 19 Nov 2018

PASI 182253Z 20008KT 5SM -DZ BR OVC027 11/09 A2996 RMK DZB04 SLP145 P0000 T01060094 $ VIA AUTODIAL
PASI 182153Z 18009KT 5SM BR BKN023 OVC031 11/09 A2997 RMK SLP148 T01060094 $ VIA AUTODIAL
PASI 182115Z 15008KT 5SM BR BKN021 BKN028 OVC033 11/11 A2997 RMK T01060106 $ VIA AUTODIAL
PASI 182053Z 15005KT 4SM BR FEW024 SCT028 OVC034 11/11 A2997 RMK RAE52 SLP148 P0001 60004 T01060106 58003 $ VIA AUTODIAL
PASI 182051Z 14006KT 4SM -RA BR SCT028 OVC036 11/11 A2997 RMK P0001 $ VIA AUTODIAL
PASI 181953Z 19009KT 2 1/2SM -RA BR BKN019 OVC024 11/11 A2998 RMK SLP152 P0000 T01060106 $ VIA AUTODIAL
PASI 181853Z 17009KT 2SM -RA BR FEW011 OVC017 10/10 A2998 RMK SLP151 P0003 T01000100 $ VIA AUTODIAL
PASI 181830Z 17009KT 2SM -RA BR FEW007 BKN010 OVC019 10/10 A2997 RMK P0003 T01000100 $ VIA AUTODIAL
PASI 181753Z 14006KT 1SM -RA BR OVC002 10/10 A2997 RMK SLP147 P0008 6//// T01000100 10106 20094 53004 $ VIA AUTODIAL
PASI 181751Z 13007KT 1SM -RA BR OVC013 10/10 A2996 RMK P0008 $ VIA AUTODIAL
PASI 181653Z 16006KT 1SM RA BR OVC005 10/10 A2996 RMK SLP145 P0021 T01000100 $ VIA AUTODIAL
PASI 181645Z 15007KT 1SM RA BR OVC005 10/10 A2996 RMK P0019 T01000100 $ VIA AUTODIAL
PASI 181607Z 12007KT 2SM RA BR OVC015 10/10 A2995 RMK P0004 T01000100 $ VIA AUTODIAL
PASI 181553Z 16005KT 2SM RA BR OVC014 10/10 A2995 RMK SLP144 T01000100 PNO $ VIA AUTODIAL
PASI 181551Z 13005KT 2SM RA BR OVC014 10/10 A2995 RMK PNO $ VIA AUTODIAL
PASI 181453Z 12005KT 2SM -RA BR OVC017 09/09 A2995 RMK SLP143 P0015 6//// T00940094 58006 $ VIA AUTODIAL
PASI 181353Z 15005KT 2SM -RA BR OVC019 09/09 A2996 RMK SLP145 T00940094 PNO $ VIA AUTODIAL
PASI 181302Z 10005KT 2 1/2SM -RA BR OVC019 09/09 A2997 RMK T00940094 PNO $ VIA AUTODIAL
PASI 181253Z 11005KT 4SM -RA BR OVC019 09/09 A2997 RMK SLP148 P0009 T00940094 $ VIA AUTODIAL
PASI 181153Z 16006KT 3SM -RA BR OVC023 09/09 A2997 RMK SLP149 P0002 60009 70120 T00940094 10100 20094 58005 $ VIA AUTODIAL
PASI 181053Z 13006KT 3SM -RA BR OVC021 09/09 A2998 RMK SLP151 P0003 T00940094 $ VIA AUTODIAL
PASI 181000Z 12006KT 6SM -RA BR OVC024 09/09 A2998 RMK P0000 T00940094 $ VIA AUTODIAL
PASI 180953Z 12006KT 2SM -RA BR OVC023 09/09 A2998 RMK SLP153 P0002 T00940094 $ VIA AUTODIAL
PASI 180914Z 09006KT 2SM -RA BR FEW023 OVC029 09/09 A2998 RMK P0000 T00940094 $ VIA AUTODIAL
PASI 180853Z 09006KT 2SM -RA BR SCT020 BKN031 OVC040 09/09 A2999 RMK RAB19 SLP154 P0001 60002 T00940094 401220083 51004 $ VIA AUTODIAL
PASI 180850Z 10007KT 5SM -RA BR SCT020 OVC035 09/09 A2999 RMK RAB19 P0000 $ VIA AUTODIAL
PASI 180800Z 00000KT 4SM BR BKN023 OVC030 09/09 A2998 RMK T00940094 $ VIA AUTODIAL
PASI 180753Z 14003KT 3/4SM BR FEW006 BKN027 OVC032 09/09 A2998 RMK RAE0656 SLP150 P0000 T00940094 $ VIA AUTODIAL
PASI 180712Z 18004KT 3/4SM BR SCT003 BKN015 OVC024 09/09 A2997 RMK RAE0656 P0000 T00940094 $ VIA AUTODIAL
PASI 180653Z 13003KT 1SM -RA BR BKN003 OVC010 09/09 A2997 RMK RAE01B11E21B47 SLP149 P0001 T00940094 $ VIA AUTODIAL
PASI 180628Z 15004KT 1SM BR SCT004 BKN011 OVC020 09/09 A2997 RMK RAE01B11E21 P0001 T00940094 $ VIA AUTODIAL
PASI 180612Z 16003KT 1SM -RA BR FEW004 BKN009 OVC013 09/09 A2997 RMK RAE01B11 P0001 T00940094 $ VIA AUTODIAL
PASI 180603Z 19005KT 1SM BR FEW004 OVC011 10/10 A2997 RMK RAE01 P0001 T01000100 $ VIA AUTODIAL
PASI 180553Z 20004KT 1SM -RA BR BKN009 OVC013 10/10 A2997 RMK DZE0456RAB0456 SLP147 P0001 60007 T01000100 10100 20100 51002 $ VIA AUTODIAL
PASI 180542Z 21004KT 1SM -RA BR VV007 10/10 A2997 RMK DZE0456RAB0456 P0001 T01000100 $ VIA AUTODIAL
PASI 180453Z 15003KT 3/4SM -DZ BR VV006 10/10 A2997 RMK SLP147 P0001 T01000100 $ VIA AUTODIAL
PASI 180410Z 19005KT 3/4SM -DZ BR VV005 10/10 A2996 RMK P0000 T01000100 $ VIA AUTODIAL
PASI 180353Z 18003KT 3/4SM -DZ BR VV004 10/10 A2996 RMK SLP146 P0002 T01000100 $ VIA AUTODIAL
PASI 180327Z 18003KT 3/4SM -DZ BR VV004 10/10 A2996 RMK P0001 T01000100 $ VIA AUTODIAL
PASI 180253Z 19004KT 3/4SM -DZ BR VV003 10/10 A2996 RMK RAB0156E28DZB28 SLP146 P0000 60003 T01000100 51006 $ VIA AUTODIAL
PASI 180251Z 18004KT 3/4SM -DZ BR VV003 10/10 A2996 RMK RAB0156E28DZB28 P0000 $ VIA AUTODIAL
PASI 180245Z 18004KT 3/4SM -DZ BR VV004 10/10 A2996 RMK RAB0156E28DZB28 P0000 T01000100 $ VIA AUTODIAL
PASI 180153Z 21005KT 1SM BR VV003 10/10 A2996 RMK RAE20 SLP144 P0001 T01000100 $ VIA AUTODIAL
PASI 180114Z 20008KT 1SM -RA BR OVC003 10/10 A2995 RMK P0001 T01000100 $ VIA AUTODIAL
PASI 180053Z 20009KT 1SM -RA BR OVC004 10/10 A2995 RMK SLP142 P0002 T01000100 $ VIA AUTODIAL
PASI 180029Z 20008KT 1SM -RA BR VV004 10/10 A2995 RMK P0002 T01000100 $ VIA AUTODIAL
PASI 172353Z 19011KT 1 1/2SM -RA BR OVC005 11/11 A2994 RMK SLP140 P0005 60075 T01060106 10122 20106 55005 $ VIA AUTODIAL
PASI 172307Z 19011KT 1 1/2SM -RA BR OVC007 11/11 A2994 RMK P0002 T01060106 $ VIA AUTODIAL
PASI 172300Z 19012KT -RA OVC007 11/11 A2994 RMK P0001 T01060106 $ VIA AUTODIAL
PASI 172253Z 20011KT 2SM -RA BR OVC007 11/11 A2994 RMK SLP140 P0007 T01060106 $ VIA AUTODIAL
PASI 172221Z 19013G22KT 2SM RA BR OVC009 11/11 A2995 RMK P0003 T01060106 $ VIA AUTODIAL
PASI 172153Z 19015G25KT 2 1/2SM -RA BR FEW009 OVC013 11/11 A2995 RMK SLP141 P0006 T01110106 $ VIA AUTODIAL
PASI 172125Z 19012G21KT 2 1/2SM -RA BR OVC014 11/11 A2996 RMK P0003 T01110106 $ VIA AUTODIAL
PASI 172053Z 17013G23KT 2 1/2SM -RA BR OVC023 11/11 A2996 RMK PK WND 18029/2028 SLP145 P0011 60057 T01110106 50000 $ VIA AUTODIAL
PASI 171953Z 17017G26KT 2 1/2SM RA FEW016 OVC024 12/11 A2996 RMK PK WND 16032/1920 SLP146 P0019 T01170106 $ VIA AUTODIAL
PASI 171931Z 17016G26KT 2 1/2SM RA FEW017 OVC024 12/11 A2996 RMK PK WND 16032/1920 P0012 T01170106 $ VIA AUTODIAL
PASI 171900Z COR 17020G29KT 3SM RA FEW019 OVC026 12/10 A2996 RMK PK WND 17028/1859 P0003 T01170100 $ VIA AUTODIAL
PASI 171853Z 16018G32KT 2SM RA OVC026 12/10 A2996 RMK PK WND 18034/1805 SLP146 P0027 T01170100 $ VIA AUTODIAL
PASI 171814Z 17016G34KT 3SM RA FEW019 OVC028 12/10 A2996 RMK PK WND 18034/1805 P0008 T01170100 $ VIA AUTODIAL
PASI 171753Z 18023G33KT 2SM +RA OVC027 12/10 A2996 RMK PK WND 18033/1752 SLP145 P0017 60029 T01170100 10117 20100 55013 $ VIA AUTODIAL
PASI 171751Z 17019G33KT 2SM +RA BKN024 OVC030 12/10 A2996 RMK PK WND 16033/1749 P0016 $ VIA AUTODIAL
PASI 171713Z 13010KT 4SM RA BR BKN019 OVC026 11/09 A2995 RMK P0008 T01060094 $ VIA AUTODIAL
PASI 171703Z 14012KT 2 1/2SM +RA BR BKN020 OVC026 11/09 A2995 RMK P0006 T01060094 $ VIA AUTODIAL
PASI 171653Z 13009KT 4SM RA BR SCT018 OVC023 11/09 A2995 RMK RAB17 SLP142 P0012 T01110094 $ VIA AUTODIAL
PASI 171553Z 12012G19KT 10SM OVC028 12/08 A2996 RMK PK WND 11027/1537 SLP146 T01170083 $ VIA AUTODIAL
PASI 171453Z 14014KT 10SM OVC025 11/09 A3000 RMK SLP158 60000 T01110089 58020 $ VIA AUTODIAL
PASI 171353Z 11013KT 9SM OVC023 11/08 A3003 RMK RAB1256E06 SLP168 P0000 T01060083 $ VIA AUTODIAL